Acworth, Georgia
Current Conditions -  °F | °C
As of 12:48 PM on Saturday 25 Oct 2014 (Local Time) from KRYY Reporting Station
Clear Clear  
Wind Chill: 66°   Ceiling: Unl
Heat Index: 66°   Visibility: 10mi
Dew Point: 43°   Wind: 7mph
Humidity: 43%   Direction: 280°W
Pressure: 30.1"   Gusts: NA
Location:  34.06°N, 84.68°W
Report Text: KRYY 251648Z 28006KT 10SM SKC 19/06 A3010
Loading
Personal Weather Stations






























Interactive Weather Map
Tropical Storm Tracking
New forecast layout! Learn more

10-Day Weather Forecast

Advertisements
Track Severe Weather on mobile